sensor_id;sensor_type;location;lat;lon;timestamp;P1;durP1;ratioP1;P2;durP2;ratioP2
51248;SDS011;39642;47.556;18.728;2024-03-08T10:49:17;34.40;;;15.88;;
51248;SDS011;39642;47.556;18.728;2024-03-08T11:15:03;24.75;;;11.57;;
51248;SDS011;39642;47.556;18.728;2024-03-08T11:21:04;30.40;;;12.40;;
51248;SDS011;39642;47.556;18.728;2024-03-08T11:23:38;55.20;;;15.45;;
51248;SDS011;39642;47.556;18.728;2024-03-08T11:26:18;31.70;;;13.73;;
51248;SDS011;39642;47.556;18.728;2024-03-08T11:28:45;32.55;;;13.85;;
51248;SDS011;39642;47.556;18.728;2024-03-08T11:33:39;32.90;;;14.32;;
51248;SDS011;39642;47.556;18.728;2024-03-08T11:38:50;38.50;;;14.87;;
51248;SDS011;39642;47.556;18.728;2024-03-08T11:41:18;29.70;;;13.00;;
51248;SDS011;39642;47.556;18.728;2024-03-08T11:43:46;47.10;;;14.85;;
51248;SDS011;39642;47.556;18.728;2024-03-08T11:46:16;41.50;;;14.68;;
51248;SDS011;39642;47.556;18.728;2024-03-08T11:48:43;47.45;;;15.73;;
51248;SDS011;39642;47.556;18.728;2024-03-08T11:51:13;43.22;;;15.75;;
51248;SDS011;39642;47.556;18.728;2024-03-08T11:53:40;36.33;;;14.57;;
51248;SDS011;39642;47.556;18.728;2024-03-08T11:56:07;47.78;;;15.90;;
51248;SDS011;39642;47.556;18.728;2024-03-08T11:58:35;50.12;;;16.40;;
51248;SDS011;39642;47.556;18.728;2024-03-08T12:01:07;42.55;;;13.02;;
51248;SDS011;39642;47.556;18.728;2024-03-08T12:03:42;29.12;;;11.38;;
51248;SDS011;39642;47.556;18.728;2024-03-08T12:06:09;31.95;;;12.43;;
51248;SDS011;39642;47.556;18.728;2024-03-08T12:08:35;38.58;;;13.48;;
51248;SDS011;39642;47.556;18.728;2024-03-08T12:11:05;66.78;;;21.35;;
51248;SDS011;39642;47.556;18.728;2024-03-08T12:13:32;48.20;;;16.20;;
51248;SDS011;39642;47.556;18.728;2024-03-08T12:16:02;43.28;;;15.95;;
51248;SDS011;39642;47.556;18.728;2024-03-08T12:18:37;42.25;;;15.73;;
51248;SDS011;39642;47.556;18.728;2024-03-08T12:21:07;40.38;;;16.55;;
51248;SDS011;39642;47.556;18.728;2024-03-08T12:23:34;42.28;;;16.08;;
51248;SDS011;39642;47.556;18.728;2024-03-08T12:26:10;40.33;;;15.80;;
51248;SDS011;39642;47.556;18.728;2024-03-08T12:28:43;33.85;;;15.68;;
51248;SDS011;39642;47.556;18.728;2024-03-08T12:31:14;40.33;;;16.17;;
51248;SDS011;39642;47.556;18.728;2024-03-08T12:33:51;38.33;;;15.68;;
51248;SDS011;39642;47.556;18.728;2024-03-08T12:36:18;43.42;;;17.77;;
51248;SDS011;39642;47.556;18.728;2024-03-08T12:38:46;78.57;;;29.37;;
51248;SDS011;39642;47.556;18.728;2024-03-08T12:41:15;50.85;;;19.55;;
51248;SDS011;39642;47.556;18.728;2024-03-08T12:43:43;48.95;;;18.02;;
51248;SDS011;39642;47.556;18.728;2024-03-08T12:46:14;29.67;;;12.82;;
51248;SDS011;39642;47.556;18.728;2024-03-08T12:48:46;45.60;;;16.58;;
51248;SDS011;39642;47.556;18.728;2024-03-08T12:51:15;51.30;;;18.95;;
51248;SDS011;39642;47.556;18.728;2024-03-08T12:53:44;51.60;;;20.42;;
51248;SDS011;39642;47.556;18.728;2024-03-08T12:56:16;48.08;;;19.62;;
51248;SDS011;39642;47.556;18.728;2024-03-08T12:58:54;76.30;;;27.30;;
51248;SDS011;39642;47.556;18.728;2024-03-08T13:01:20;54.65;;;20.62;;
51248;SDS011;39642;47.556;18.728;2024-03-08T13:03:45;47.62;;;19.27;;
51248;SDS011;39642;47.556;18.728;2024-03-08T13:06:12;54.63;;;19.62;;
51248;SDS011;39642;47.556;18.728;2024-03-08T13:08:38;42.28;;;18.15;;
51248;SDS011;39642;47.556;18.728;2024-03-08T13:11:06;47.17;;;16.98;;
51248;SDS011;39642;47.556;18.728;2024-03-08T13:13:37;43.28;;;16.42;;
51248;SDS011;39642;47.556;18.728;2024-03-08T13:16:05;48.13;;;17.85;;
51248;SDS011;39642;47.556;18.728;2024-03-08T13:18:35;39.65;;;16.45;;
51248;SDS011;39642;47.556;18.728;2024-03-08T13:21:01;46.60;;;17.20;;
51248;SDS011;39642;47.556;18.728;2024-03-08T13:23:35;39.30;;;17.00;;
51248;SDS011;39642;47.556;18.728;2024-03-08T13:26:11;41.90;;;17.98;;
51248;SDS011;39642;47.556;18.728;2024-03-08T13:28:42;47.97;;;17.40;;
51248;SDS011;39642;47.556;18.728;2024-03-08T13:31:09;41.60;;;15.95;;
51248;SDS011;39642;47.556;18.728;2024-03-08T13:33:37;51.28;;;18.27;;
51248;SDS011;39642;47.556;18.728;2024-03-08T13:36:12;32.67;;;14.60;;
51248;SDS011;39642;47.556;18.728;2024-03-08T13:38:42;41.47;;;16.60;;
51248;SDS011;39642;47.556;18.728;2024-03-08T13:41:09;39.17;;;16.02;;
51248;SDS011;39642;47.556;18.728;2024-03-08T13:43:37;43.53;;;16.10;;
51248;SDS011;39642;47.556;18.728;2024-03-08T13:46:03;38.40;;;15.40;;
51248;SDS011;39642;47.556;18.728;2024-03-08T13:48:30;32.25;;;15.52;;
51248;SDS011;39642;47.556;18.728;2024-03-08T13:50:57;35.60;;;14.82;;
51248;SDS011;39642;47.556;18.728;2024-03-08T13:53:22;34.42;;;15.38;;
51248;SDS011;39642;47.556;18.728;2024-03-08T13:55:49;37.85;;;16.37;;
51248;SDS011;39642;47.556;18.728;2024-03-08T13:58:16;34.10;;;13.73;;
51248;SDS011;39642;47.556;18.728;2024-03-08T14:00:41;42.65;;;17.60;;
51248;SDS011;39642;47.556;18.728;2024-03-08T14:03:09;36.35;;;15.82;;
51248;SDS011;39642;47.556;18.728;2024-03-08T14:05:39;47.92;;;19.50;;
51248;SDS011;39642;47.556;18.728;2024-03-08T14:08:07;35.30;;;15.40;;
51248;SDS011;39642;47.556;18.728;2024-03-08T14:10:33;26.65;;;13.40;;
51248;SDS011;39642;47.556;18.728;2024-03-08T14:13:00;24.67;;;13.10;;
51248;SDS011;39642;47.556;18.728;2024-03-08T14:15:33;27.67;;;13.27;;
51248;SDS011;39642;47.556;18.728;2024-03-08T14:18:00;50.35;;;21.33;;
51248;SDS011;39642;47.556;18.728;2024-03-08T14:20:27;32.33;;;13.95;;
51248;SDS011;39642;47.556;18.728;2024-03-08T14:22:56;45.92;;;18.73;;
51248;SDS011;39642;47.556;18.728;2024-03-08T14:25:22;46.75;;;16.83;;
51248;SDS011;39642;47.556;18.728;2024-03-08T14:27:49;46.60;;;22.77;;
51248;SDS011;39642;47.556;18.728;2024-03-08T14:30:20;44.25;;;16.42;;
51248;SDS011;39642;47.556;18.728;2024-03-08T14:33:03;42.38;;;19.10;;
51248;SDS011;39642;47.556;18.728;2024-03-08T14:35:31;38.38;;;15.20;;
51248;SDS011;39642;47.556;18.728;2024-03-08T14:37:57;27.83;;;13.93;;
51248;SDS011;39642;47.556;18.728;2024-03-08T14:40:24;39.17;;;13.70;;
51248;SDS011;39642;47.556;18.728;2024-03-08T14:42:52;37.83;;;17.73;;
51248;SDS011;39642;47.556;18.728;2024-03-08T14:45:19;43.90;;;18.23;;
51248;SDS011;39642;47.556;18.728;2024-03-08T14:47:48;30.92;;;13.05;;
51248;SDS011;39642;47.556;18.728;2024-03-08T14:50:19;42.90;;;19.25;;
51248;SDS011;39642;47.556;18.728;2024-03-08T14:52:45;50.22;;;17.45;;
51248;SDS011;39642;47.556;18.728;2024-03-08T14:55:19;62.38;;;22.55;;
51248;SDS011;39642;47.556;18.728;2024-03-08T14:57:49;46.47;;;15.25;;
51248;SDS011;39642;47.556;18.728;2024-03-08T15:00:17;59.15;;;14.77;;
51248;SDS011;39642;47.556;18.728;2024-03-08T15:02:52;43.00;;;15.13;;
51248;SDS011;39642;47.556;18.728;2024-03-08T15:05:19;40.30;;;13.55;;
51248;SDS011;39642;47.556;18.728;2024-03-08T15:07:46;40.22;;;14.63;;
51248;SDS011;39642;47.556;18.728;2024-03-08T15:10:14;44.47;;;13.62;;
51248;SDS011;39642;47.556;18.728;2024-03-08T15:12:42;39.00;;;14.25;;
51248;SDS011;39642;47.556;18.728;2024-03-08T15:15:12;34.42;;;12.55;;
51248;SDS011;39642;47.556;18.728;2024-03-08T15:17:40;37.70;;;13.62;;
51248;SDS011;39642;47.556;18.728;2024-03-08T15:20:09;29.65;;;12.43;;
51248;SDS011;39642;47.556;18.728;2024-03-08T15:22:53;35.63;;;15.23;;
51248;SDS011;39642;47.556;18.728;2024-03-08T15:25:20;35.05;;;14.43;;
51248;SDS011;39642;47.556;18.728;2024-03-08T15:27:54;30.27;;;12.70;;
51248;SDS011;39642;47.556;18.728;2024-03-08T15:30:21;25.30;;;12.35;;
51248;SDS011;39642;47.556;18.728;2024-03-08T15:32:54;24.48;;;11.65;;
51248;SDS011;39642;47.556;18.728;2024-03-08T15:35:22;25.95;;;11.60;;
51248;SDS011;39642;47.556;18.728;2024-03-08T15:37:51;23.58;;;11.50;;
51248;SDS011;39642;47.556;18.728;2024-03-08T15:40:18;22.90;;;11.57;;
51248;SDS011;39642;47.556;18.728;2024-03-08T15:42:57;21.98;;;11.80;;
51248;SDS011;39642;47.556;18.728;2024-03-08T15:45:23;23.12;;;11.25;;
51248;SDS011;39642;47.556;18.728;2024-03-08T15:47:52;24.23;;;11.88;;
51248;SDS011;39642;47.556;18.728;2024-03-08T15:50:19;24.05;;;10.98;;
51248;SDS011;39642;47.556;18.728;2024-03-08T15:52:48;21.50;;;11.77;;
51248;SDS011;39642;47.556;18.728;2024-03-08T15:55:15;30.42;;;13.07;;
51248;SDS011;39642;47.556;18.728;2024-03-08T15:57:53;25.95;;;12.98;;
51248;SDS011;39642;47.556;18.728;2024-03-08T16:00:23;27.33;;;13.20;;
51248;SDS011;39642;47.556;18.728;2024-03-08T16:03:07;26.90;;;13.35;;
51248;SDS011;39642;47.556;18.728;2024-03-08T16:05:36;27.73;;;13.43;;
51248;SDS011;39642;47.556;18.728;2024-03-08T16:08:03;25.08;;;12.43;;
51248;SDS011;39642;47.556;18.728;2024-03-08T16:10:30;25.55;;;12.43;;
51248;SDS011;39642;47.556;18.728;2024-03-08T16:12:56;28.33;;;13.77;;
51248;SDS011;39642;47.556;18.728;2024-03-08T16:15:22;27.17;;;13.23;;
51248;SDS011;39642;47.556;18.728;2024-03-08T16:17:48;28.87;;;14.10;;
51248;SDS011;39642;47.556;18.728;2024-03-08T16:20:15;23.92;;;12.77;;
51248;SDS011;39642;47.556;18.728;2024-03-08T16:22:43;28.95;;;13.62;;
51248;SDS011;39642;47.556;18.728;2024-03-08T16:25:10;26.42;;;12.60;;
51248;SDS011;39642;47.556;18.728;2024-03-08T16:27:39;24.70;;;12.10;;
51248;SDS011;39642;47.556;18.728;2024-03-08T16:30:06;21.60;;;11.40;;
51248;SDS011;39642;47.556;18.728;2024-03-08T16:32:44;26.83;;;12.85;;
51248;SDS011;39642;47.556;18.728;2024-03-08T16:35:12;27.30;;;13.57;;
51248;SDS011;39642;47.556;18.728;2024-03-08T16:37:42;25.17;;;12.80;;
51248;SDS011;39642;47.556;18.728;2024-03-08T16:40:08;27.05;;;14.60;;
51248;SDS011;39642;47.556;18.728;2024-03-08T16:42:48;30.12;;;14.32;;
51248;SDS011;39642;47.556;18.728;2024-03-08T16:45:21;27.17;;;13.55;;
51248;SDS011;39642;47.556;18.728;2024-03-08T16:47:48;26.62;;;13.43;;
51248;SDS011;39642;47.556;18.728;2024-03-08T16:50:22;27.37;;;12.88;;
51248;SDS011;39642;47.556;18.728;2024-03-08T16:52:52;29.05;;;15.07;;
51248;SDS011;39642;47.556;18.728;2024-03-08T16:55:18;39.13;;;18.65;;
51248;SDS011;39642;47.556;18.728;2024-03-08T16:57:45;31.67;;;13.93;;
51248;SDS011;39642;47.556;18.728;2024-03-08T17:00:18;23.90;;;12.07;;
51248;SDS011;39642;47.556;18.728;2024-03-08T17:02:53;28.48;;;13.55;;
51248;SDS011;39642;47.556;18.728;2024-03-08T17:05:19;31.42;;;15.90;;
51248;SDS011;39642;47.556;18.728;2024-03-08T17:07:46;29.20;;;14.82;;
51248;SDS011;39642;47.556;18.728;2024-03-08T17:10:20;32.60;;;15.57;;
51248;SDS011;39642;47.556;18.728;2024-03-08T17:12:49;34.22;;;14.77;;
51248;SDS011;39642;47.556;18.728;2024-03-08T17:15:20;34.45;;;14.05;;
51248;SDS011;39642;47.556;18.728;2024-03-08T17:17:50;25.35;;;11.52;;
51248;SDS011;39642;47.556;18.728;2024-03-08T17:20:18;31.95;;;14.15;;
51248;SDS011;39642;47.556;18.728;2024-03-08T17:22:48;28.50;;;12.93;;
51248;SDS011;39642;47.556;18.728;2024-03-08T17:25:15;31.77;;;13.85;;
51248;SDS011;39642;47.556;18.728;2024-03-08T17:27:45;46.92;;;13.65;;
51248;SDS011;39642;47.556;18.728;2024-03-08T17:30:15;35.85;;;13.62;;
51248;SDS011;39642;47.556;18.728;2024-03-08T17:32:48;32.20;;;13.75;;
51248;SDS011;39642;47.556;18.728;2024-03-08T17:35:21;33.67;;;13.25;;
51248;SDS011;39642;47.556;18.728;2024-03-08T17:37:49;28.20;;;13.30;;
51248;SDS011;39642;47.556;18.728;2024-03-08T17:40:18;30.88;;;13.77;;
51248;SDS011;39642;47.556;18.728;2024-03-08T17:42:51;27.55;;;14.00;;
51248;SDS011;39642;47.556;18.728;2024-03-08T17:45:21;33.90;;;14.32;;
51248;SDS011;39642;47.556;18.728;2024-03-08T17:47:49;30.80;;;13.90;;
51248;SDS011;39642;47.556;18.728;2024-03-08T17:50:20;31.75;;;14.63;;
51248;SDS011;39642;47.556;18.728;2024-03-08T17:52:50;32.13;;;13.75;;
51248;SDS011;39642;47.556;18.728;2024-03-08T17:55:17;33.63;;;14.00;;
51248;SDS011;39642;47.556;18.728;2024-03-08T17:57:45;25.83;;;12.23;;
51248;SDS011;39642;47.556;18.728;2024-03-08T18:00:14;38.05;;;14.40;;
51248;SDS011;39642;47.556;18.728;2024-03-08T18:02:51;33.72;;;13.98;;
51248;SDS011;39642;47.556;18.728;2024-03-08T18:05:18;24.60;;;11.90;;
51248;SDS011;39642;47.556;18.728;2024-03-08T18:07:47;30.52;;;13.93;;
51248;SDS011;39642;47.556;18.728;2024-03-08T18:10:13;32.30;;;13.55;;
51248;SDS011;39642;47.556;18.728;2024-03-08T18:12:49;29.20;;;13.62;;
51248;SDS011;39642;47.556;18.728;2024-03-08T18:15:17;27.42;;;13.52;;
51248;SDS011;39642;47.556;18.728;2024-03-08T18:17:53;27.10;;;12.60;;
51248;SDS011;39642;47.556;18.728;2024-03-08T18:20:20;29.17;;;13.23;;
51248;SDS011;39642;47.556;18.728;2024-03-08T18:23:01;28.75;;;14.13;;
51248;SDS011;39642;47.556;18.728;2024-03-08T18:25:29;27.95;;;13.93;;
51248;SDS011;39642;47.556;18.728;2024-03-08T18:27:56;27.05;;;13.25;;
51248;SDS011;39642;47.556;18.728;2024-03-08T18:30:25;29.83;;;12.68;;
51248;SDS011;39642;47.556;18.728;2024-03-08T18:32:51;31.87;;;13.55;;
51248;SDS011;39642;47.556;18.728;2024-03-08T18:35:17;29.87;;;12.37;;
51248;SDS011;39642;47.556;18.728;2024-03-08T18:37:44;29.70;;;12.93;;
51248;SDS011;39642;47.556;18.728;2024-03-08T18:40:18;26.85;;;12.07;;
51248;SDS011;39642;47.556;18.728;2024-03-08T18:42:49;27.75;;;12.30;;
51248;SDS011;39642;47.556;18.728;2024-03-08T18:45:16;26.85;;;12.52;;
51248;SDS011;39642;47.556;18.728;2024-03-08T18:47:44;29.37;;;11.85;;
51248;SDS011;39642;47.556;18.728;2024-03-08T18:50:18;26.98;;;12.23;;
51248;SDS011;39642;47.556;18.728;2024-03-08T18:52:46;23.45;;;10.95;;
51248;SDS011;39642;47.556;18.728;2024-03-08T18:55:14;24.52;;;11.88;;
51248;SDS011;39642;47.556;18.728;2024-03-08T18:57:47;21.67;;;11.45;;
51248;SDS011;39642;47.556;18.728;2024-03-08T19:02:53;26.75;;;11.35;;
51248;SDS011;39642;47.556;18.728;2024-03-08T19:05:22;23.67;;;11.85;;
51248;SDS011;39642;47.556;18.728;2024-03-08T19:07:50;23.52;;;11.50;;
51248;SDS011;39642;47.556;18.728;2024-03-08T19:10:18;21.73;;;10.43;;
51248;SDS011;39642;47.556;18.728;2024-03-08T19:12:45;21.25;;;10.90;;
51248;SDS011;39642;47.556;18.728;2024-03-08T19:15:16;20.25;;;10.70;;
51248;SDS011;39642;47.556;18.728;2024-03-08T19:17:43;25.42;;;13.18;;
51248;SDS011;39642;47.556;18.728;2024-03-08T19:20:10;24.87;;;11.52;;
51248;SDS011;39642;47.556;18.728;2024-03-08T19:22:51;26.50;;;11.63;;
51248;SDS011;39642;47.556;18.728;2024-03-08T19:25:22;27.30;;;12.68;;
51248;SDS011;39642;47.556;18.728;2024-03-08T19:27:53;25.23;;;12.75;;
51248;SDS011;39642;47.556;18.728;2024-03-08T19:30:23;28.92;;;14.07;;
51248;SDS011;39642;47.556;18.728;2024-03-08T19:32:53;24.85;;;12.75;;
51248;SDS011;39642;47.556;18.728;2024-03-08T19:35:22;29.10;;;12.98;;
51248;SDS011;39642;47.556;18.728;2024-03-08T19:37:50;24.75;;;11.90;;
51248;SDS011;39642;47.556;18.728;2024-03-08T19:40:21;23.87;;;11.95;;
51248;SDS011;39642;47.556;18.728;2024-03-08T19:42:51;21.67;;;10.82;;
51248;SDS011;39642;47.556;18.728;2024-03-08T19:45:21;21.40;;;11.55;;
51248;SDS011;39642;47.556;18.728;2024-03-08T19:47:51;23.40;;;13.00;;
51248;SDS011;39642;47.556;18.728;2024-03-08T19:50:18;23.60;;;11.77;;
51248;SDS011;39642;47.556;18.728;2024-03-08T19:52:47;21.92;;;10.98;;
51248;SDS011;39642;47.556;18.728;2024-03-08T19:55:16;23.05;;;11.90;;
51248;SDS011;39642;47.556;18.728;2024-03-08T19:57:46;23.58;;;12.00;;
51248;SDS011;39642;47.556;18.728;2024-03-08T20:00:14;21.10;;;11.27;;
51248;SDS011;39642;47.556;18.728;2024-03-08T20:02:43;24.87;;;12.30;;
51248;SDS011;39642;47.556;18.728;2024-03-08T20:05:11;23.50;;;12.20;;
51248;SDS011;39642;47.556;18.728;2024-03-08T20:07:40;26.35;;;12.27;;
51248;SDS011;39642;47.556;18.728;2024-03-08T20:10:10;23.33;;;11.15;;
51248;SDS011;39642;47.556;18.728;2024-03-08T20:12:42;22.95;;;11.45;;
51248;SDS011;39642;47.556;18.728;2024-03-08T20:15:09;20.77;;;11.50;;
51248;SDS011;39642;47.556;18.728;2024-03-08T20:17:37;21.70;;;11.20;;
51248;SDS011;39642;47.556;18.728;2024-03-08T20:20:04;25.83;;;12.68;;
51248;SDS011;39642;47.556;18.728;2024-03-08T20:22:31;24.25;;;12.90;;
51248;SDS011;39642;47.556;18.728;2024-03-08T20:24:57;25.92;;;12.95;;
51248;SDS011;39642;47.556;18.728;2024-03-08T20:27:27;21.40;;;10.90;;
51248;SDS011;39642;47.556;18.728;2024-03-08T20:29:55;22.10;;;11.65;;
51248;SDS011;39642;47.556;18.728;2024-03-08T20:32:20;20.50;;;11.48;;
51248;SDS011;39642;47.556;18.728;2024-03-08T20:34:46;21.70;;;11.35;;
51248;SDS011;39642;47.556;18.728;2024-03-08T20:37:12;21.20;;;11.35;;
51248;SDS011;39642;47.556;18.728;2024-03-08T20:39:39;20.08;;;10.70;;
51248;SDS011;39642;47.556;18.728;2024-03-08T20:42:05;23.80;;;11.35;;
51248;SDS011;39642;47.556;18.728;2024-03-08T20:44:31;19.10;;;10.45;;
51248;SDS011;39642;47.556;18.728;2024-03-08T20:46:57;19.90;;;11.15;;
51248;SDS011;39642;47.556;18.728;2024-03-08T20:49:24;18.08;;;10.02;;
51248;SDS011;39642;47.556;18.728;2024-03-08T20:51:50;18.85;;;9.32;;
51248;SDS011;39642;47.556;18.728;2024-03-08T20:54:15;21.08;;;10.23;;
51248;SDS011;39642;47.556;18.728;2024-03-08T20:56:42;17.92;;;10.13;;
51248;SDS011;39642;47.556;18.728;2024-03-08T20:59:08;19.58;;;10.73;;
51248;SDS011;39642;47.556;18.728;2024-03-08T21:01:35;20.35;;;10.32;;
51248;SDS011;39642;47.556;18.728;2024-03-08T21:04:02;18.92;;;9.98;;
51248;SDS011;39642;47.556;18.728;2024-03-08T21:06:29;18.27;;;10.35;;
51248;SDS011;39642;47.556;18.728;2024-03-08T21:08:55;19.42;;;9.80;;
51248;SDS011;39642;47.556;18.728;2024-03-08T21:11:23;20.17;;;10.88;;
51248;SDS011;39642;47.556;18.728;2024-03-08T21:13:49;18.65;;;10.10;;
51248;SDS011;39642;47.556;18.728;2024-03-08T21:16:15;20.15;;;10.77;;
51248;SDS011;39642;47.556;18.728;2024-03-08T21:18:42;22.25;;;11.60;;
51248;SDS011;39642;47.556;18.728;2024-03-08T21:21:08;19.87;;;9.90;;
51248;SDS011;39642;47.556;18.728;2024-03-08T21:23:34;19.98;;;10.75;;
51248;SDS011;39642;47.556;18.728;2024-03-08T21:26:00;19.48;;;9.95;;
51248;SDS011;39642;47.556;18.728;2024-03-08T21:28:27;18.52;;;9.88;;
51248;SDS011;39642;47.556;18.728;2024-03-08T21:30:56;19.08;;;9.95;;
51248;SDS011;39642;47.556;18.728;2024-03-08T21:33:24;18.30;;;10.02;;
51248;SDS011;39642;47.556;18.728;2024-03-08T21:35:50;19.87;;;10.57;;
51248;SDS011;39642;47.556;18.728;2024-03-08T21:38:16;19.02;;;10.07;;
51248;SDS011;39642;47.556;18.728;2024-03-08T21:40:42;17.73;;;9.65;;
51248;SDS011;39642;47.556;18.728;2024-03-08T21:43:08;20.17;;;10.70;;
51248;SDS011;39642;47.556;18.728;2024-03-08T21:45:35;18.62;;;10.38;;
51248;SDS011;39642;47.556;18.728;2024-03-08T21:48:02;20.45;;;10.70;;
51248;SDS011;39642;47.556;18.728;2024-03-08T21:50:29;20.83;;;11.35;;
51248;SDS011;39642;47.556;18.728;2024-03-08T21:52:56;20.77;;;10.65;;
51248;SDS011;39642;47.556;18.728;2024-03-08T21:55:22;19.52;;;9.98;;
51248;SDS011;39642;47.556;18.728;2024-03-08T21:57:50;20.52;;;10.43;;
51248;SDS011;39642;47.556;18.728;2024-03-08T22:00:16;17.45;;;9.30;;
51248;SDS011;39642;47.556;18.728;2024-03-08T22:02:44;19.35;;;10.63;;
51248;SDS011;39642;47.556;18.728;2024-03-08T22:05:14;19.02;;;10.10;;
51248;SDS011;39642;47.556;18.728;2024-03-08T22:07:49;18.00;;;9.27;;
51248;SDS011;39642;47.556;18.728;2024-03-08T22:10:16;19.27;;;9.55;;
51248;SDS011;39642;47.556;18.728;2024-03-08T22:15:13;20.85;;;10.60;;
51248;SDS011;39642;47.556;18.728;2024-03-08T22:17:41;18.02;;;9.55;;
51248;SDS011;39642;47.556;18.728;2024-03-08T22:20:11;18.42;;;9.80;;
51248;SDS011;39642;47.556;18.728;2024-03-08T22:22:51;20.30;;;9.70;;
51248;SDS011;39642;47.556;18.728;2024-03-08T22:25:19;17.08;;;9.60;;
51248;SDS011;39642;47.556;18.728;2024-03-08T22:27:46;17.92;;;9.82;;
51248;SDS011;39642;47.556;18.728;2024-03-08T22:30:15;18.33;;;9.73;;
51248;SDS011;39642;47.556;18.728;2024-03-08T22:32:44;17.98;;;9.90;;
51248;SDS011;39642;47.556;18.728;2024-03-08T22:35:12;19.77;;;10.25;;
51248;SDS011;39642;47.556;18.728;2024-03-08T22:37:39;20.08;;;10.52;;
51248;SDS011;39642;47.556;18.728;2024-03-08T22:40:06;20.08;;;9.68;;
51248;SDS011;39642;47.556;18.728;2024-03-08T22:42:41;16.73;;;9.43;;
51248;SDS011;39642;47.556;18.728;2024-03-08T22:45:08;18.70;;;9.85;;
51248;SDS011;39642;47.556;18.728;2024-03-08T22:47:36;16.77;;;9.15;;
51248;SDS011;39642;47.556;18.728;2024-03-08T22:50:02;18.05;;;9.93;;
51248;SDS011;39642;47.556;18.728;2024-03-08T22:52:33;18.20;;;9.68;;
51248;SDS011;39642;47.556;18.728;2024-03-08T22:55:01;17.17;;;9.60;;
51248;SDS011;39642;47.556;18.728;2024-03-08T22:57:32;18.23;;;10.15;;
51248;SDS011;39642;47.556;18.728;2024-03-08T22:59:59;18.35;;;9.80;;
51248;SDS011;39642;47.556;18.728;2024-03-08T23:02:25;20.75;;;10.88;;
51248;SDS011;39642;47.556;18.728;2024-03-08T23:04:52;18.33;;;10.20;;
51248;SDS011;39642;47.556;18.728;2024-03-08T23:07:18;17.95;;;9.90;;
51248;SDS011;39642;47.556;18.728;2024-03-08T23:09:45;17.62;;;9.73;;
51248;SDS011;39642;47.556;18.728;2024-03-08T23:12:12;19.23;;;10.60;;
51248;SDS011;39642;47.556;18.728;2024-03-08T23:14:38;17.33;;;9.13;;
51248;SDS011;39642;47.556;18.728;2024-03-08T23:17:04;16.45;;;9.25;;
51248;SDS011;39642;47.556;18.728;2024-03-08T23:19:33;18.33;;;10.30;;
51248;SDS011;39642;47.556;18.728;2024-03-08T23:22:04;18.85;;;9.95;;
51248;SDS011;39642;47.556;18.728;2024-03-08T23:24:34;17.30;;;9.25;;
51248;SDS011;39642;47.556;18.728;2024-03-08T23:27:00;17.35;;;9.55;;
51248;SDS011;39642;47.556;18.728;2024-03-08T23:29:26;18.10;;;9.45;;
51248;SDS011;39642;47.556;18.728;2024-03-08T23:31:52;17.85;;;9.80;;
51248;SDS011;39642;47.556;18.728;2024-03-08T23:34:20;18.77;;;9.75;;
51248;SDS011;39642;47.556;18.728;2024-03-08T23:36:46;18.02;;;9.73;;
51248;SDS011;39642;47.556;18.728;2024-03-08T23:39:15;17.00;;;9.00;;
51248;SDS011;39642;47.556;18.728;2024-03-08T23:41:41;17.33;;;9.27;;
51248;SDS011;39642;47.556;18.728;2024-03-08T23:44:07;17.50;;;9.60;;
51248;SDS011;39642;47.556;18.728;2024-03-08T23:46:33;17.87;;;9.10;;
51248;SDS011;39642;47.556;18.728;2024-03-08T23:49:02;18.73;;;9.40;;
51248;SDS011;39642;47.556;18.728;2024-03-08T23:51:28;19.90;;;9.77;;
51248;SDS011;39642;47.556;18.728;2024-03-08T23:53:54;18.15;;;9.55;;
51248;SDS011;39642;47.556;18.728;2024-03-08T23:56:20;19.33;;;9.88;;
51248;SDS011;39642;47.556;18.728;2024-03-08T23:58:48;17.55;;;9.65;;
